createdAt,value
2023-01-27T00:14:27.512Z,-0.4
2023-01-27T00:30:01.777Z,-0.2
2023-01-27T00:45:36.186Z,-0.2
2023-01-27T01:01:10.475Z,-0.2
2023-01-27T01:16:44.818Z,0
2023-01-27T01:32:19.090Z,0
2023-01-27T01:47:53.342Z,0
2023-01-27T02:03:27.777Z,0.2
2023-01-27T02:19:02.061Z,0.2
2023-01-27T02:34:36.363Z,0
2023-01-27T02:50:10.712Z,-0.1
2023-01-27T03:05:44.751Z,0
2023-01-27T03:21:19.081Z,0.2
2023-01-27T03:36:53.401Z,0
2023-01-27T03:52:27.757Z,0
2023-01-27T04:08:02.093Z,0
2023-01-27T04:23:36.793Z,0.2
2023-01-27T04:39:11.111Z,0.2
2023-01-27T04:54:45.562Z,0
2023-01-27T05:10:19.877Z,-0.2
2023-01-27T05:25:54.199Z,-0.4
2023-01-27T05:41:28.604Z,-0.8
2023-01-27T05:57:03.019Z,-0.9
2023-01-27T06:12:37.297Z,-1
2023-01-27T06:28:30.546Z,-1
2023-01-27T06:44:04.966Z,-0.7
2023-01-27T06:59:39.286Z,-0.9
2023-01-27T07:15:13.811Z,-0.8
2023-01-27T07:30:48.442Z,-0.7
2023-01-27T07:46:22.874Z,-0.5
2023-01-27T08:01:57.205Z,-0.6
2023-01-27T08:17:31.513Z,-0.4
2023-01-27T08:33:05.851Z,-0.1
2023-01-27T08:48:40.977Z,0
2023-01-27T09:04:15.557Z,0
2023-01-27T09:19:49.872Z,-0.2
2023-01-27T09:35:24.195Z,0
2023-01-27T09:50:58.507Z,0.3
2023-01-27T10:06:36.129Z,0.8
2023-01-27T10:22:10.477Z,1.2
2023-01-27T10:37:44.961Z,1.4
2023-01-27T10:53:19.304Z,1.9
2023-01-27T11:08:53.638Z,2
2023-01-27T11:24:28.135Z,1.7
2023-01-27T11:40:02.487Z,1.7
2023-01-27T11:55:36.838Z,1.7
2023-01-27T12:11:11.159Z,1.6
2023-01-27T12:26:45.544Z,2.1
2023-01-27T12:42:20.152Z,2
2023-01-27T12:57:54.640Z,1.7
2023-01-27T13:13:28.970Z,1.4
2023-01-27T13:29:18.597Z,1.3
2023-01-27T13:44:52.909Z,1
2023-01-27T14:00:27.240Z,1.2
2023-01-27T14:16:01.771Z,1.5
2023-01-27T14:31:36.760Z,1.4
2023-01-27T14:47:11.149Z,1.3
2023-01-27T15:02:45.589Z,1.3
2023-01-27T15:18:19.901Z,1
2023-01-27T15:33:54.249Z,1
2023-01-27T15:49:28.579Z,0.8
2023-01-27T16:05:02.897Z,0.8
2023-01-27T16:20:37.199Z,0.8
2023-01-27T16:36:11.563Z,0.8
2023-01-27T16:51:45.937Z,0.8
2023-01-27T17:07:20.538Z,0.9
2023-01-27T17:22:54.636Z,1
2023-01-27T17:38:30.407Z,1.2
2023-01-27T17:54:04.796Z,1.4
2023-01-27T18:09:40.836Z,1.5
2023-01-27T18:25:16.428Z,1.4
2023-01-27T18:40:50.778Z,1.5
2023-01-27T18:56:25.089Z,1.5
2023-01-27T19:12:00.983Z,1.3
2023-01-27T19:27:35.381Z,1.2
2023-01-27T19:43:09.688Z,1.1
2023-01-27T19:58:43.989Z,1
2023-01-27T20:14:18.311Z,1.1
2023-01-27T20:29:52.763Z,1.1
2023-01-27T20:45:27.099Z,1
2023-01-27T21:01:01.648Z,1
2023-01-27T21:16:36.467Z,1.1
2023-01-27T21:32:10.837Z,1.1
2023-01-27T21:47:45.245Z,1.1
2023-01-27T22:03:19.676Z,1
2023-01-27T22:18:53.976Z,1
2023-01-27T22:34:28.315Z,0.9
2023-01-27T22:50:02.637Z,0.9
2023-01-27T23:05:36.972Z,0.9
2023-01-27T23:21:11.284Z,0.7
2023-01-27T23:36:45.611Z,0.6
2023-01-27T23:52:19.925Z,0.5
